sensor_id;sensor_type;location;lat;lon;timestamp;temperature;humidity
9393;DHT22;4736;52.508;13.422;2022-12-20T00:01:46;4.10;1.00
9393;DHT22;4736;52.508;13.422;2022-12-20T00:04:49;4.20;1.00
9393;DHT22;4736;52.508;13.422;2022-12-20T00:07:52;4.00;1.00
9393;DHT22;4736;52.508;13.422;2022-12-20T00:10:56;4.10;1.00
9393;DHT22;4736;52.508;13.422;2022-12-20T00:14:02;4.10;1.00
9393;DHT22;4736;52.508;13.422;2022-12-20T00:17:05;4.30;1.00
9393;DHT22;4736;52.508;13.422;2022-12-20T00:20:09;4.50;1.00
9393;DHT22;4736;52.508;13.422;2022-12-20T00:23:12;4.10;1.00
9393;DHT22;4736;52.508;13.422;2022-12-20T00:26:18;4.30;1.00
9393;DHT22;4736;52.508;13.422;2022-12-20T00:29:23;4.10;1.00
9393;DHT22;4736;52.508;13.422;2022-12-20T00:32:26;4.30;1.00
9393;DHT22;4736;52.508;13.422;2022-12-20T00:35:29;4.40;1.00
9393;DHT22;4736;52.508;13.422;2022-12-20T00:38:34;4.40;1.00
9393;DHT22;4736;52.508;13.422;2022-12-20T00:41:37;4.40;1.00
9393;DHT22;4736;52.508;13.422;2022-12-20T00:44:41;4.10;1.00
9393;DHT22;4736;52.508;13.422;2022-12-20T00:47:45;4.10;1.00
9393;DHT22;4736;52.508;13.422;2022-12-20T00:50:48;4.40;1.00
9393;DHT22;4736;52.508;13.422;2022-12-20T00:53:51;4.20;1.00
9393;DHT22;4736;52.508;13.422;2022-12-20T00:56:54;4.20;1.00
9393;DHT22;4736;52.508;13.422;2022-12-20T00:59:59;4.30;1.00
9393;DHT22;4736;52.508;13.422;2022-12-20T01:03:02;4.30;1.00
9393;DHT22;4736;52.508;13.422;2022-12-20T01:06:05;4.40;1.00
9393;DHT22;4736;52.508;13.422;2022-12-20T01:09:09;4.30;1.00
9393;DHT22;4736;52.508;13.422;2022-12-20T01:12:13;4.40;1.00
9393;DHT22;4736;52.508;13.422;2022-12-20T01:15:18;4.30;1.00
9393;DHT22;4736;52.508;13.422;2022-12-20T01:18:21;4.30;1.00
9393;DHT22;4736;52.508;13.422;2022-12-20T01:21:26;4.30;1.00
9393;DHT22;4736;52.508;13.422;2022-12-20T01:24:29;4.10;1.00
9393;DHT22;4736;52.508;13.422;2022-12-20T01:27:32;4.50;1.00
9393;DHT22;4736;52.508;13.422;2022-12-20T01:30:40;4.40;1.00
9393;DHT22;4736;52.508;13.422;2022-12-20T01:33:44;4.50;1.00
9393;DHT22;4736;52.508;13.422;2022-12-20T01:36:48;4.50;1.00
9393;DHT22;4736;52.508;13.422;2022-12-20T01:39:51;4.20;1.00
9393;DHT22;4736;52.508;13.422;2022-12-20T01:42:54;4.40;1.00
9393;DHT22;4736;52.508;13.422;2022-12-20T01:45:59;4.60;1.00
9393;DHT22;4736;52.508;13.422;2022-12-20T01:49:05;4.40;1.00
9393;DHT22;4736;52.508;13.422;2022-12-20T01:52:14;4.60;1.00
9393;DHT22;4736;52.508;13.422;2022-12-20T01:55:21;4.60;1.00
9393;DHT22;4736;52.508;13.422;2022-12-20T01:58:24;4.20;1.00
9393;DHT22;4736;52.508;13.422;2022-12-20T02:01:28;4.40;1.00
9393;DHT22;4736;52.508;13.422;2022-12-20T02:04:32;4.70;1.00
9393;DHT22;4736;52.508;13.422;2022-12-20T02:07:36;4.10;1.00
9393;DHT22;4736;52.508;13.422;2022-12-20T02:10:50;4.50;1.00
9393;DHT22;4736;52.508;13.422;2022-12-20T02:14:06;4.20;1.00
9393;DHT22;4736;52.508;13.422;2022-12-20T02:17:20;4.20;1.00
9393;DHT22;4736;52.508;13.422;2022-12-20T02:27:45;4.20;1.00
9393;DHT22;4736;52.508;13.422;2022-12-20T02:30:53;4.20;1.00
9393;DHT22;4736;52.508;13.422;2022-12-20T02:33:58;4.30;1.00
9393;DHT22;4736;52.508;13.422;2022-12-20T02:37:02;4.40;1.00
9393;DHT22;4736;52.508;13.422;2022-12-20T02:40:06;4.60;1.00
9393;DHT22;4736;52.508;13.422;2022-12-20T02:43:10;4.50;1.00
9393;DHT22;4736;52.508;13.422;2022-12-20T02:46:30;4.30;1.00
9393;DHT22;4736;52.508;13.422;2022-12-20T02:49:35;4.60;1.00
9393;DHT22;4736;52.508;13.422;2022-12-20T02:52:41;4.50;1.00
9393;DHT22;4736;52.508;13.422;2022-12-20T02:55:47;4.50;1.00
9393;DHT22;4736;52.508;13.422;2022-12-20T02:58:55;4.60;1.00
9393;DHT22;4736;52.508;13.422;2022-12-20T03:02:02;4.80;1.00
9393;DHT22;4736;52.508;13.422;2022-12-20T03:05:06;4.80;1.00
9393;DHT22;4736;52.508;13.422;2022-12-20T03:08:09;4.80;1.00
9393;DHT22;4736;52.508;13.422;2022-12-20T03:11:12;4.90;1.00
9393;DHT22;4736;52.508;13.422;2022-12-20T03:14:15;4.90;1.00
9393;DHT22;4736;52.508;13.422;2022-12-20T03:17:19;4.80;1.00
9393;DHT22;4736;52.508;13.422;2022-12-20T03:20:23;4.90;1.00
9393;DHT22;4736;52.508;13.422;2022-12-20T03:23:26;4.90;1.00
9393;DHT22;4736;52.508;13.422;2022-12-20T03:26:29;5.10;1.00
9393;DHT22;4736;52.508;13.422;2022-12-20T03:29:32;5.00;1.00
9393;DHT22;4736;52.508;13.422;2022-12-20T03:32:36;5.00;1.00
9393;DHT22;4736;52.508;13.422;2022-12-20T03:35:39;5.00;1.00
9393;DHT22;4736;52.508;13.422;2022-12-20T03:38:42;4.90;1.00
9393;DHT22;4736;52.508;13.422;2022-12-20T03:41:45;4.90;1.00
9393;DHT22;4736;52.508;13.422;2022-12-20T03:44:48;5.00;1.00
9393;DHT22;4736;52.508;13.422;2022-12-20T03:47:52;5.20;1.00
9393;DHT22;4736;52.508;13.422;2022-12-20T03:50:55;5.10;1.00
9393;DHT22;4736;52.508;13.422;2022-12-20T03:53:58;5.30;1.00
9393;DHT22;4736;52.508;13.422;2022-12-20T03:57:01;5.00;1.00
9393;DHT22;4736;52.508;13.422;2022-12-20T04:00:06;5.10;1.00
9393;DHT22;4736;52.508;13.422;2022-12-20T04:03:10;5.10;1.00
9393;DHT22;4736;52.508;13.422;2022-12-20T04:06:14;4.90;1.00
9393;DHT22;4736;52.508;13.422;2022-12-20T04:09:17;5.00;1.00
9393;DHT22;4736;52.508;13.422;2022-12-20T04:12:20;5.00;1.00
9393;DHT22;4736;52.508;13.422;2022-12-20T04:15:23;5.00;1.00
9393;DHT22;4736;52.508;13.422;2022-12-20T04:18:27;4.80;1.00
9393;DHT22;4736;52.508;13.422;2022-12-20T04:21:32;5.00;1.00
9393;DHT22;4736;52.508;13.422;2022-12-20T04:24:36;5.10;1.00
9393;DHT22;4736;52.508;13.422;2022-12-20T04:27:38;5.00;1.00
9393;DHT22;4736;52.508;13.422;2022-12-20T04:30:41;4.90;1.00
9393;DHT22;4736;52.508;13.422;2022-12-20T04:33:46;5.10;1.00
9393;DHT22;4736;52.508;13.422;2022-12-20T04:36:50;5.10;1.00
9393;DHT22;4736;52.508;13.422;2022-12-20T04:39:53;5.00;1.00
9393;DHT22;4736;52.508;13.422;2022-12-20T04:42:57;4.70;1.00
9393;DHT22;4736;52.508;13.422;2022-12-20T04:45:59;5.00;1.00
9393;DHT22;4736;52.508;13.422;2022-12-20T04:49:04;4.90;1.00
9393;DHT22;4736;52.508;13.422;2022-12-20T04:52:07;4.80;1.00
9393;DHT22;4736;52.508;13.422;2022-12-20T04:55:24;4.80;1.00
9393;DHT22;4736;52.508;13.422;2022-12-20T04:58:27;4.80;1.00
9393;DHT22;4736;52.508;13.422;2022-12-20T05:01:30;4.70;1.00
9393;DHT22;4736;52.508;13.422;2022-12-20T05:04:35;4.90;1.00
9393;DHT22;4736;52.508;13.422;2022-12-20T05:07:38;4.70;1.00
9393;DHT22;4736;52.508;13.422;2022-12-20T05:10:41;4.80;1.00
9393;DHT22;4736;52.508;13.422;2022-12-20T05:13:44;4.80;1.00
9393;DHT22;4736;52.508;13.422;2022-12-20T05:16:47;4.90;1.00
9393;DHT22;4736;52.508;13.422;2022-12-20T05:19:51;4.90;1.00
9393;DHT22;4736;52.508;13.422;2022-12-20T05:22:54;5.00;1.00
9393;DHT22;4736;52.508;13.422;2022-12-20T05:26:15;4.80;1.00
9393;DHT22;4736;52.508;13.422;2022-12-20T05:29:21;4.90;1.00
9393;DHT22;4736;52.508;13.422;2022-12-20T05:32:24;4.90;1.00
9393;DHT22;4736;52.508;13.422;2022-12-20T05:35:28;4.80;1.00
9393;DHT22;4736;52.508;13.422;2022-12-20T05:38:31;5.00;1.00
9393;DHT22;4736;52.508;13.422;2022-12-20T05:41:34;4.90;1.00
9393;DHT22;4736;52.508;13.422;2022-12-20T05:44:37;4.60;1.00
9393;DHT22;4736;52.508;13.422;2022-12-20T05:47:40;4.90;1.00
9393;DHT22;4736;52.508;13.422;2022-12-20T05:50:45;4.90;1.00
9393;DHT22;4736;52.508;13.422;2022-12-20T05:53:48;5.20;1.00
9393;DHT22;4736;52.508;13.422;2022-12-20T05:56:51;5.00;1.00
9393;DHT22;4736;52.508;13.422;2022-12-20T05:59:54;5.00;1.00
9393;DHT22;4736;52.508;13.422;2022-12-20T06:02:57;4.90;1.00
9393;DHT22;4736;52.508;13.422;2022-12-20T06:06:01;5.00;1.00
9393;DHT22;4736;52.508;13.422;2022-12-20T06:09:12;5.00;1.00
9393;DHT22;4736;52.508;13.422;2022-12-20T06:12:15;5.00;1.00
9393;DHT22;4736;52.508;13.422;2022-12-20T06:15:18;5.00;1.00
9393;DHT22;4736;52.508;13.422;2022-12-20T06:18:21;5.20;1.00
9393;DHT22;4736;52.508;13.422;2022-12-20T06:21:26;5.40;1.00
9393;DHT22;4736;52.508;13.422;2022-12-20T06:24:29;5.10;1.00
9393;DHT22;4736;52.508;13.422;2022-12-20T06:27:32;5.30;1.00
9393;DHT22;4736;52.508;13.422;2022-12-20T06:30:35;5.30;1.00
9393;DHT22;4736;52.508;13.422;2022-12-20T06:33:38;5.30;1.00
9393;DHT22;4736;52.508;13.422;2022-12-20T06:36:42;5.40;1.00
9393;DHT22;4736;52.508;13.422;2022-12-20T06:39:45;5.30;1.00
9393;DHT22;4736;52.508;13.422;2022-12-20T06:42:48;5.20;1.00
9393;DHT22;4736;52.508;13.422;2022-12-20T06:45:51;5.30;1.00
9393;DHT22;4736;52.508;13.422;2022-12-20T06:48:55;5.40;1.00
9393;DHT22;4736;52.508;13.422;2022-12-20T06:51:59;5.30;1.00
9393;DHT22;4736;52.508;13.422;2022-12-20T06:55:03;5.10;1.00
9393;DHT22;4736;52.508;13.422;2022-12-20T06:58:06;5.00;1.00
9393;DHT22;4736;52.508;13.422;2022-12-20T07:01:09;5.20;1.00
9393;DHT22;4736;52.508;13.422;2022-12-20T07:04:12;5.40;1.00
9393;DHT22;4736;52.508;13.422;2022-12-20T07:07:16;5.40;1.00
9393;DHT22;4736;52.508;13.422;2022-12-20T07:10:19;5.50;1.00
9393;DHT22;4736;52.508;13.422;2022-12-20T07:13:22;5.30;1.00
9393;DHT22;4736;52.508;13.422;2022-12-20T07:16:26;5.50;1.00
9393;DHT22;4736;52.508;13.422;2022-12-20T07:19:29;5.40;1.00
9393;DHT22;4736;52.508;13.422;2022-12-20T07:22:34;5.30;1.00
9393;DHT22;4736;52.508;13.422;2022-12-20T07:25:37;5.30;1.00
9393;DHT22;4736;52.508;13.422;2022-12-20T07:28:41;5.50;1.00
9393;DHT22;4736;52.508;13.422;2022-12-20T07:31:44;5.30;1.00
9393;DHT22;4736;52.508;13.422;2022-12-20T07:34:47;5.60;1.00
9393;DHT22;4736;52.508;13.422;2022-12-20T07:37:52;5.50;1.00
9393;DHT22;4736;52.508;13.422;2022-12-20T07:40:55;5.20;1.00
9393;DHT22;4736;52.508;13.422;2022-12-20T07:43:58;5.40;1.00
9393;DHT22;4736;52.508;13.422;2022-12-20T07:47:01;5.30;1.00
9393;DHT22;4736;52.508;13.422;2022-12-20T07:50:05;5.40;1.00
9393;DHT22;4736;52.508;13.422;2022-12-20T07:53:10;5.40;1.00
9393;DHT22;4736;52.508;13.422;2022-12-20T07:56:14;5.40;1.00
9393;DHT22;4736;52.508;13.422;2022-12-20T07:59:20;5.50;1.00
9393;DHT22;4736;52.508;13.422;2022-12-20T08:02:26;5.50;1.00
9393;DHT22;4736;52.508;13.422;2022-12-20T08:05:32;5.50;1.00
9393;DHT22;4736;52.508;13.422;2022-12-20T08:08:39;5.60;1.00
9393;DHT22;4736;52.508;13.422;2022-12-20T08:11:44;5.50;1.00
9393;DHT22;4736;52.508;13.422;2022-12-20T08:14:49;5.50;1.00
9393;DHT22;4736;52.508;13.422;2022-12-20T08:17:56;5.80;1.00
9393;DHT22;4736;52.508;13.422;2022-12-20T08:20:59;5.60;1.00
9393;DHT22;4736;52.508;13.422;2022-12-20T08:24:04;5.60;1.00
9393;DHT22;4736;52.508;13.422;2022-12-20T08:27:08;5.60;1.00
9393;DHT22;4736;52.508;13.422;2022-12-20T08:30:12;5.60;1.00
9393;DHT22;4736;52.508;13.422;2022-12-20T08:33:15;5.60;1.00
9393;DHT22;4736;52.508;13.422;2022-12-20T08:36:18;5.60;1.00
9393;DHT22;4736;52.508;13.422;2022-12-20T08:39:22;5.60;1.00
9393;DHT22;4736;52.508;13.422;2022-12-20T08:42:26;5.70;1.00
9393;DHT22;4736;52.508;13.422;2022-12-20T08:45:29;5.70;1.00
9393;DHT22;4736;52.508;13.422;2022-12-20T08:48:33;5.60;1.00
9393;DHT22;4736;52.508;13.422;2022-12-20T08:51:36;5.60;1.00
9393;DHT22;4736;52.508;13.422;2022-12-20T08:54:40;5.70;1.00
9393;DHT22;4736;52.508;13.422;2022-12-20T08:57:43;5.80;1.00
9393;DHT22;4736;52.508;13.422;2022-12-20T09:00:46;5.80;1.00
9393;DHT22;4736;52.508;13.422;2022-12-20T09:03:49;6.00;1.00
9393;DHT22;4736;52.508;13.422;2022-12-20T09:06:52;6.00;1.00
9393;DHT22;4736;52.508;13.422;2022-12-20T09:09:56;6.20;1.00
9393;DHT22;4736;52.508;13.422;2022-12-20T09:12:59;6.00;1.00
9393;DHT22;4736;52.508;13.422;2022-12-20T09:16:04;6.30;1.00
9393;DHT22;4736;52.508;13.422;2022-12-20T09:19:11;6.20;1.00
9393;DHT22;4736;52.508;13.422;2022-12-20T09:22:14;6.20;1.00
9393;DHT22;4736;52.508;13.422;2022-12-20T09:25:18;6.20;1.00
9393;DHT22;4736;52.508;13.422;2022-12-20T09:28:21;6.20;1.00
9393;DHT22;4736;52.508;13.422;2022-12-20T09:31:25;6.50;1.00
9393;DHT22;4736;52.508;13.422;2022-12-20T09:34:28;6.30;1.00
9393;DHT22;4736;52.508;13.422;2022-12-20T09:37:32;6.50;1.00
9393;DHT22;4736;52.508;13.422;2022-12-20T09:40:36;6.60;1.00
9393;DHT22;4736;52.508;13.422;2022-12-20T09:43:39;6.50;1.00
9393;DHT22;4736;52.508;13.422;2022-12-20T09:46:43;6.80;1.00
9393;DHT22;4736;52.508;13.422;2022-12-20T09:49:49;6.70;1.00
9393;DHT22;4736;52.508;13.422;2022-12-20T09:53:02;6.90;1.00
9393;DHT22;4736;52.508;13.422;2022-12-20T09:56:25;6.90;1.00
9393;DHT22;4736;52.508;13.422;2022-12-20T09:59:28;7.00;1.00
9393;DHT22;4736;52.508;13.422;2022-12-20T10:02:39;7.10;1.00
9393;DHT22;4736;52.508;13.422;2022-12-20T10:06:07;7.10;1.00
9393;DHT22;4736;52.508;13.422;2022-12-20T10:09:23;7.10;1.00
9393;DHT22;4736;52.508;13.422;2022-12-20T10:12:37;7.20;1.00
9393;DHT22;4736;52.508;13.422;2022-12-20T10:15:49;7.40;1.00
9393;DHT22;4736;52.508;13.422;2022-12-20T10:19:00;7.20;1.00
9393;DHT22;4736;52.508;13.422;2022-12-20T10:22:08;7.30;1.00
9393;DHT22;4736;52.508;13.422;2022-12-20T10:25:17;7.30;1.00
9393;DHT22;4736;52.508;13.422;2022-12-20T10:28:25;7.20;1.00
9393;DHT22;4736;52.508;13.422;2022-12-20T10:31:29;7.40;1.00
9393;DHT22;4736;52.508;13.422;2022-12-20T10:34:32;7.20;1.00
9393;DHT22;4736;52.508;13.422;2022-12-20T10:37:56;7.20;1.00
9393;DHT22;4736;52.508;13.422;2022-12-20T10:41:17;7.20;1.00
9393;DHT22;4736;52.508;13.422;2022-12-20T10:44:26;7.20;1.00
9393;DHT22;4736;52.508;13.422;2022-12-20T10:47:37;7.30;1.00
9393;DHT22;4736;52.508;13.422;2022-12-20T10:50:42;7.30;1.00
9393;DHT22;4736;52.508;13.422;2022-12-20T10:53:57;7.40;1.00
9393;DHT22;4736;52.508;13.422;2022-12-20T10:57:03;7.60;1.00
9393;DHT22;4736;52.508;13.422;2022-12-20T11:00:27;7.70;1.00
9393;DHT22;4736;52.508;13.422;2022-12-20T11:03:31;7.80;1.00
9393;DHT22;4736;52.508;13.422;2022-12-20T11:06:43;7.80;1.00
9393;DHT22;4736;52.508;13.422;2022-12-20T11:09:51;7.80;1.00
9393;DHT22;4736;52.508;13.422;2022-12-20T11:12:56;7.80;1.00
9393;DHT22;4736;52.508;13.422;2022-12-20T11:16:00;7.90;1.00
9393;DHT22;4736;52.508;13.422;2022-12-20T11:19:28;7.90;1.00
9393;DHT22;4736;52.508;13.422;2022-12-20T11:22:40;7.90;1.00
9393;DHT22;4736;52.508;13.422;2022-12-20T11:26:03;7.80;1.00
9393;DHT22;4736;52.508;13.422;2022-12-20T11:29:34;7.90;1.00
9393;DHT22;4736;52.508;13.422;2022-12-20T11:36:17;7.90;1.00
9393;DHT22;4736;52.508;13.422;2022-12-20T11:39:31;7.90;1.00
9393;DHT22;4736;52.508;13.422;2022-12-20T11:42:54;7.90;1.00
9393;DHT22;4736;52.508;13.422;2022-12-20T11:46:10;7.90;1.00
9393;DHT22;4736;52.508;13.422;2022-12-20T11:49:52;8.00;1.00
9393;DHT22;4736;52.508;13.422;2022-12-20T11:53:01;8.00;1.00
9393;DHT22;4736;52.508;13.422;2022-12-20T11:56:10;8.00;1.00
9393;DHT22;4736;52.508;13.422;2022-12-20T11:59:21;8.00;1.00
9393;DHT22;4736;52.508;13.422;2022-12-20T12:02:32;8.00;1.00
9393;DHT22;4736;52.508;13.422;2022-12-20T12:05:42;8.00;1.00
9393;DHT22;4736;52.508;13.422;2022-12-20T12:08:50;8.00;1.00
9393;DHT22;4736;52.508;13.422;2022-12-20T12:11:59;8.10;1.00
9393;DHT22;4736;52.508;13.422;2022-12-20T12:15:18;8.10;1.00
9393;DHT22;4736;52.508;13.422;2022-12-20T12:18:27;8.10;1.00
9393;DHT22;4736;52.508;13.422;2022-12-20T12:21:37;8.10;1.00
9393;DHT22;4736;52.508;13.422;2022-12-20T12:24:43;8.10;1.00
9393;DHT22;4736;52.508;13.422;2022-12-20T12:27:48;8.20;1.00
9393;DHT22;4736;52.508;13.422;2022-12-20T12:30:56;8.30;1.00
9393;DHT22;4736;52.508;13.422;2022-12-20T12:34:05;8.30;1.00
9393;DHT22;4736;52.508;13.422;2022-12-20T12:37:32;8.30;1.00
9393;DHT22;4736;52.508;13.422;2022-12-20T12:44:25;8.30;1.00
9393;DHT22;4736;52.508;13.422;2022-12-20T12:47:36;8.30;1.00
9393;DHT22;4736;52.508;13.422;2022-12-20T12:50:43;8.30;1.00
9393;DHT22;4736;52.508;13.422;2022-12-20T12:53:51;8.20;1.00
9393;DHT22;4736;52.508;13.422;2022-12-20T12:56:58;8.30;1.00
9393;DHT22;4736;52.508;13.422;2022-12-20T13:00:46;8.20;1.00
9393;DHT22;4736;52.508;13.422;2022-12-20T13:04:09;8.20;1.00
9393;DHT22;4736;52.508;13.422;2022-12-20T13:07:39;8.20;1.00
9393;DHT22;4736;52.508;13.422;2022-12-20T13:11:00;8.30;1.00
9393;DHT22;4736;52.508;13.422;2022-12-20T13:14:10;8.30;1.00
9393;DHT22;4736;52.508;13.422;2022-12-20T13:17:45;8.30;1.00
9393;DHT22;4736;52.508;13.422;2022-12-20T13:24:51;8.20;1.00
9393;DHT22;4736;52.508;13.422;2022-12-20T13:31:34;8.10;1.00
9393;DHT22;4736;52.508;13.422;2022-12-20T13:34:51;8.00;1.00
9393;DHT22;4736;52.508;13.422;2022-12-20T13:37:57;8.00;1.00
9393;DHT22;4736;52.508;13.422;2022-12-20T13:41:12;8.00;1.00
9393;DHT22;4736;52.508;13.422;2022-12-20T13:44:41;7.90;1.00
9393;DHT22;4736;52.508;13.422;2022-12-20T13:47:50;7.90;1.00
9393;DHT22;4736;52.508;13.422;2022-12-20T13:50:57;7.90;1.00
9393;DHT22;4736;52.508;13.422;2022-12-20T13:54:02;7.80;1.00
9393;DHT22;4736;52.508;13.422;2022-12-20T13:57:06;7.80;1.00
9393;DHT22;4736;52.508;13.422;2022-12-20T14:00:14;7.90;1.00
9393;DHT22;4736;52.508;13.422;2022-12-20T14:03:25;7.80;1.00
9393;DHT22;4736;52.508;13.422;2022-12-20T14:06:28;7.90;1.00
9393;DHT22;4736;52.508;13.422;2022-12-20T14:09:34;7.80;1.00
9393;DHT22;4736;52.508;13.422;2022-12-20T14:12:42;7.80;1.00
9393;DHT22;4736;52.508;13.422;2022-12-20T14:15:47;7.70;1.00
9393;DHT22;4736;52.508;13.422;2022-12-20T14:18:59;7.70;1.00
9393;DHT22;4736;52.508;13.422;2022-12-20T14:22:02;7.70;1.00
9393;DHT22;4736;52.508;13.422;2022-12-20T14:25:07;7.90;1.00
9393;DHT22;4736;52.508;13.422;2022-12-20T14:28:24;7.70;1.00
9393;DHT22;4736;52.508;13.422;2022-12-20T14:31:34;7.60;1.00
9393;DHT22;4736;52.508;13.422;2022-12-20T14:34:42;7.60;1.00
9393;DHT22;4736;52.508;13.422;2022-12-20T14:37:52;7.60;1.00
9393;DHT22;4736;52.508;13.422;2022-12-20T14:40:56;7.50;1.00
9393;DHT22;4736;52.508;13.422;2022-12-20T14:44:02;7.50;1.00
9393;DHT22;4736;52.508;13.422;2022-12-20T14:47:14;7.60;1.00
9393;DHT22;4736;52.508;13.422;2022-12-20T14:50:23;7.50;1.00
9393;DHT22;4736;52.508;13.422;2022-12-20T14:53:26;7.50;1.00
9393;DHT22;4736;52.508;13.422;2022-12-20T14:56:30;7.50;1.00
9393;DHT22;4736;52.508;13.422;2022-12-20T14:59:34;7.50;1.00
9393;DHT22;4736;52.508;13.422;2022-12-20T15:02:40;7.40;1.00
9393;DHT22;4736;52.508;13.422;2022-12-20T15:05:49;7.40;1.00
9393;DHT22;4736;52.508;13.422;2022-12-20T15:08:53;7.40;1.00
9393;DHT22;4736;52.508;13.422;2022-12-20T15:11:56;7.40;1.00
9393;DHT22;4736;52.508;13.422;2022-12-20T15:14:59;7.30;1.00
9393;DHT22;4736;52.508;13.422;2022-12-20T15:18:23;7.30;1.00
9393;DHT22;4736;52.508;13.422;2022-12-20T15:21:30;7.30;1.00
9393;DHT22;4736;52.508;13.422;2022-12-20T15:24:34;7.20;1.00
9393;DHT22;4736;52.508;13.422;2022-12-20T15:27:37;7.70;1.00
9393;DHT22;4736;52.508;13.422;2022-12-20T15:30:40;7.40;1.00
9393;DHT22;4736;52.508;13.422;2022-12-20T15:33:44;7.40;1.00
9393;DHT22;4736;52.508;13.422;2022-12-20T15:36:49;7.40;1.00
9393;DHT22;4736;52.508;13.422;2022-12-20T15:39:52;7.30;1.00
9393;DHT22;4736;52.508;13.422;2022-12-20T15:42:56;7.40;1.00
9393;DHT22;4736;52.508;13.422;2022-12-20T15:45:59;7.30;1.00
9393;DHT22;4736;52.508;13.422;2022-12-20T15:49:02;7.20;1.00
9393;DHT22;4736;52.508;13.422;2022-12-20T15:52:16;7.20;1.00
9393;DHT22;4736;52.508;13.422;2022-12-20T15:55:21;7.20;1.00
9393;DHT22;4736;52.508;13.422;2022-12-20T15:58:24;7.20;1.00
9393;DHT22;4736;52.508;13.422;2022-12-20T16:01:32;7.20;1.00
9393;DHT22;4736;52.508;13.422;2022-12-20T16:04:41;7.40;1.00
9393;DHT22;4736;52.508;13.422;2022-12-20T16:07:46;7.30;1.00
9393;DHT22;4736;52.508;13.422;2022-12-20T16:10:50;7.10;1.00
9393;DHT22;4736;52.508;13.422;2022-12-20T16:13:54;7.10;1.00
9393;DHT22;4736;52.508;13.422;2022-12-20T16:16:58;7.30;1.00
9393;DHT22;4736;52.508;13.422;2022-12-20T16:20:01;7.20;1.00
9393;DHT22;4736;52.508;13.422;2022-12-20T16:23:10;7.20;1.00
9393;DHT22;4736;52.508;13.422;2022-12-20T16:26:18;7.20;1.00
9393;DHT22;4736;52.508;13.422;2022-12-20T16:29:22;7.20;1.00
9393;DHT22;4736;52.508;13.422;2022-12-20T16:32:24;7.20;1.00
9393;DHT22;4736;52.508;13.422;2022-12-20T16:35:29;7.40;1.00
9393;DHT22;4736;52.508;13.422;2022-12-20T16:38:34;7.10;1.00
9393;DHT22;4736;52.508;13.422;2022-12-20T16:41:39;7.00;1.00
9393;DHT22;4736;52.508;13.422;2022-12-20T16:44:44;7.00;1.00
9393;DHT22;4736;52.508;13.422;2022-12-20T16:47:48;7.20;1.00
9393;DHT22;4736;52.508;13.422;2022-12-20T16:50:53;6.90;1.00
9393;DHT22;4736;52.508;13.422;2022-12-20T16:53:59;7.00;1.00
9393;DHT22;4736;52.508;13.422;2022-12-20T16:57:19;6.90;1.00
9393;DHT22;4736;52.508;13.422;2022-12-20T17:00:24;7.00;1.00
9393;DHT22;4736;52.508;13.422;2022-12-20T17:03:28;6.90;1.00
9393;DHT22;4736;52.508;13.422;2022-12-20T17:06:32;6.90;1.00
9393;DHT22;4736;52.508;13.422;2022-12-20T17:09:37;6.90;1.00
9393;DHT22;4736;52.508;13.422;2022-12-20T17:12:40;6.70;1.00
9393;DHT22;4736;52.508;13.422;2022-12-20T17:15:43;6.90;1.00
9393;DHT22;4736;52.508;13.422;2022-12-20T17:18:49;7.00;1.00
9393;DHT22;4736;52.508;13.422;2022-12-20T17:21:52;6.80;1.00
9393;DHT22;4736;52.508;13.422;2022-12-20T17:25:19;6.80;1.00
9393;DHT22;4736;52.508;13.422;2022-12-20T17:28:23;6.70;1.00
9393;DHT22;4736;52.508;13.422;2022-12-20T17:31:28;6.70;1.00
9393;DHT22;4736;52.508;13.422;2022-12-20T17:34:32;6.50;1.00
9393;DHT22;4736;52.508;13.422;2022-12-20T17:37:35;6.80;1.00
9393;DHT22;4736;52.508;13.422;2022-12-20T17:40:40;6.50;1.00
9393;DHT22;4736;52.508;13.422;2022-12-20T17:43:43;6.50;1.00
9393;DHT22;4736;52.508;13.422;2022-12-20T17:46:46;6.60;1.00
9393;DHT22;4736;52.508;13.422;2022-12-20T17:49:49;6.60;1.00
9393;DHT22;4736;52.508;13.422;2022-12-20T17:52:52;6.80;1.00
9393;DHT22;4736;52.508;13.422;2022-12-20T17:55:57;6.60;1.00
9393;DHT22;4736;52.508;13.422;2022-12-20T17:59:02;6.60;1.00
9393;DHT22;4736;52.508;13.422;2022-12-20T18:02:15;6.70;1.00
9393;DHT22;4736;52.508;13.422;2022-12-20T18:05:20;6.70;1.00
9393;DHT22;4736;52.508;13.422;2022-12-20T18:08:23;6.70;1.00
9393;DHT22;4736;52.508;13.422;2022-12-20T18:11:28;6.70;1.00
9393;DHT22;4736;52.508;13.422;2022-12-20T18:14:31;7.10;1.00
9393;DHT22;4736;52.508;13.422;2022-12-20T18:17:34;6.90;1.00
9393;DHT22;4736;52.508;13.422;2022-12-20T18:20:37;6.80;1.00
9393;DHT22;4736;52.508;13.422;2022-12-20T18:23:40;6.80;1.00
9393;DHT22;4736;52.508;13.422;2022-12-20T18:26:45;6.90;1.00
9393;DHT22;4736;52.508;13.422;2022-12-20T18:29:48;6.90;1.00
9393;DHT22;4736;52.508;13.422;2022-12-20T18:32:51;6.90;1.00
9393;DHT22;4736;52.508;13.422;2022-12-20T18:36:02;6.90;1.00
9393;DHT22;4736;52.508;13.422;2022-12-20T18:39:07;7.00;1.00
9393;DHT22;4736;52.508;13.422;2022-12-20T18:42:11;6.90;1.00
9393;DHT22;4736;52.508;13.422;2022-12-20T18:45:14;6.90;1.00
9393;DHT22;4736;52.508;13.422;2022-12-20T18:48:17;6.90;1.00
9393;DHT22;4736;52.508;13.422;2022-12-20T18:51:22;6.90;1.00
9393;DHT22;4736;52.508;13.422;2022-12-20T18:54:27;7.00;1.00
9393;DHT22;4736;52.508;13.422;2022-12-20T18:57:32;6.90;1.00
9393;DHT22;4736;52.508;13.422;2022-12-20T19:00:35;7.10;1.00
9393;DHT22;4736;52.508;13.422;2022-12-20T19:03:38;7.00;1.00
9393;DHT22;4736;52.508;13.422;2022-12-20T19:06:41;6.90;1.00
9393;DHT22;4736;52.508;13.422;2022-12-20T19:09:44;6.90;1.00
9393;DHT22;4736;52.508;13.422;2022-12-20T19:12:48;6.90;1.00
9393;DHT22;4736;52.508;13.422;2022-12-20T19:15:59;6.90;1.00
9393;DHT22;4736;52.508;13.422;2022-12-20T19:19:03;7.00;1.00
9393;DHT22;4736;52.508;13.422;2022-12-20T19:22:05;6.90;1.00
9393;DHT22;4736;52.508;13.422;2022-12-20T19:25:09;6.90;1.00
9393;DHT22;4736;52.508;13.422;2022-12-20T19:28:13;7.00;1.00
9393;DHT22;4736;52.508;13.422;2022-12-20T19:31:17;6.90;1.00
9393;DHT22;4736;52.508;13.422;2022-12-20T19:34:24;7.00;1.00
9393;DHT22;4736;52.508;13.422;2022-12-20T19:37:27;6.80;1.00
9393;DHT22;4736;52.508;13.422;2022-12-20T19:40:38;6.80;1.00
9393;DHT22;4736;52.508;13.422;2022-12-20T19:43:43;6.60;1.00
9393;DHT22;4736;52.508;13.422;2022-12-20T19:46:46;6.60;1.00
9393;DHT22;4736;52.508;13.422;2022-12-20T19:49:49;6.50;1.00
9393;DHT22;4736;52.508;13.422;2022-12-20T19:52:52;6.50;1.00
9393;DHT22;4736;52.508;13.422;2022-12-20T19:55:55;6.50;1.00
9393;DHT22;4736;52.508;13.422;2022-12-20T19:59:00;6.50;1.00
9393;DHT22;4736;52.508;13.422;2022-12-20T20:02:04;6.50;1.00
9393;DHT22;4736;52.508;13.422;2022-12-20T20:05:07;6.50;1.00
9393;DHT22;4736;52.508;13.422;2022-12-20T20:08:16;6.50;1.00
9393;DHT22;4736;52.508;13.422;2022-12-20T20:11:19;6.40;1.00
9393;DHT22;4736;52.508;13.422;2022-12-20T20:14:23;6.30;1.00
9393;DHT22;4736;52.508;13.422;2022-12-20T20:17:26;6.40;1.00
9393;DHT22;4736;52.508;13.422;2022-12-20T20:20:29;6.60;1.00
9393;DHT22;4736;52.508;13.422;2022-12-20T20:23:36;6.40;1.00
9393;DHT22;4736;52.508;13.422;2022-12-20T20:26:39;6.30;1.00
9393;DHT22;4736;52.508;13.422;2022-12-20T20:29:43;6.30;1.00
9393;DHT22;4736;52.508;13.422;2022-12-20T20:32:46;6.30;1.00
9393;DHT22;4736;52.508;13.422;2022-12-20T20:35:53;6.50;1.00
9393;DHT22;4736;52.508;13.422;2022-12-20T20:38:56;6.30;1.00
9393;DHT22;4736;52.508;13.422;2022-12-20T20:41:59;6.30;1.00
9393;DHT22;4736;52.508;13.422;2022-12-20T20:45:04;6.60;1.00
9393;DHT22;4736;52.508;13.422;2022-12-20T20:48:07;6.20;1.00
9393;DHT22;4736;52.508;13.422;2022-12-20T20:51:10;6.40;1.00
9393;DHT22;4736;52.508;13.422;2022-12-20T20:54:14;6.20;1.00
9393;DHT22;4736;52.508;13.422;2022-12-20T20:57:17;6.50;1.00